Tuckerton, New Jersey
Current Conditions -  °F | °C
As of 3:54 AM on Sunday 26 Oct 2014 (Local Time) from KACY Reporting Station
Broken Clouds Broken Clouds  
Wind Chill: 56°   Ceiling: 9000
Heat Index: 56°   Visibility: 10mi
Dew Point: 47°   Wind: 7mph
Humidity: 72%   Direction: 280°W
Pressure: 29.61"   Gusts: NA
Location:  39.6°N, 74.34°W
Report Text: KACY 260754Z 28006KT 10SM BKN090 13/08 A2961 RMK AO2 SLP027 T01330083
Loading
Personal Weather Stations






























Interactive Weather Map
Tropical Storm Tracking
New forecast layout! Learn more

10-Day Weather Forecast

Advertisements
Track Severe Weather on mobile